createdAt,value
2023-02-18T00:05:01.400Z,7.80
2023-02-18T00:10:04.888Z,8.07
2023-02-18T00:15:06.975Z,8.68
2023-02-18T00:20:09.032Z,7.00
2023-02-18T00:25:10.787Z,7.50
2023-02-18T00:30:12.722Z,8.07
2023-02-18T00:35:14.570Z,7.40
2023-02-18T00:40:20.380Z,8.07
2023-02-18T00:45:22.085Z,8.65
2023-02-18T00:50:23.817Z,9.25
2023-02-18T00:55:25.534Z,11.93
2023-02-18T01:00:27.212Z,12.75
2023-02-18T01:05:28.983Z,11.15
2023-02-18T01:10:30.982Z,12.10
2023-02-18T01:15:32.850Z,13.40
2023-02-18T01:20:36.058Z,13.88
2023-02-18T01:25:38.860Z,14.50
2023-02-18T01:30:43.264Z,14.50
2023-02-18T01:35:45.005Z,15.00
2023-02-18T01:40:51.538Z,16.05
2023-02-18T01:46:05.235Z,17.40
2023-02-18T01:51:27.257Z,16.80
2023-02-18T01:56:37.716Z,21.33
2023-02-18T02:01:43.703Z,20.10
2023-02-18T02:06:45.347Z,19.08
2023-02-18T02:12:14.719Z,20.38
2023-02-18T02:17:28.374Z,20.45
2023-02-18T02:22:51.491Z,19.05
2023-02-18T02:28:34.299Z,18.30
2023-02-18T02:34:04.190Z,18.58
2023-02-18T02:39:19.692Z,18.33
2023-02-18T02:44:45.906Z,17.27
2023-02-18T02:50:00.782Z,15.27
2023-02-18T02:55:08.396Z,15.05
2023-02-18T03:00:11.837Z,15.65
2023-02-18T03:05:39.284Z,14.65
2023-02-18T03:11:07.135Z,14.20
2023-02-18T03:16:19.090Z,13.77
2023-02-18T03:21:34.691Z,13.10
2023-02-18T03:26:42.206Z,14.52
2023-02-18T03:31:47.987Z,11.98
2023-02-18T03:36:49.840Z,11.77
2023-02-18T03:41:51.599Z,9.25
2023-02-18T03:46:53.862Z,6.72
2023-02-18T03:51:55.836Z,7.45
2023-02-18T03:56:57.442Z,8.88
2023-02-18T04:01:59.218Z,8.50
2023-02-18T04:07:00.903Z,8.43
2023-02-18T04:12:02.620Z,7.60
2023-02-18T04:17:04.411Z,8.60
2023-02-18T04:22:06.082Z,9.65
2023-02-18T04:27:07.704Z,9.23
2023-02-18T04:32:09.581Z,10.82
2023-02-18T04:37:11.175Z,10.20
2023-02-18T04:42:12.933Z,10.55
2023-02-18T04:47:14.633Z,9.90
2023-02-18T04:52:16.582Z,9.27
2023-02-18T04:57:18.424Z,9.52
2023-02-18T05:02:20.034Z,7.35
2023-02-18T05:07:21.672Z,8.20
2023-02-18T05:12:23.316Z,6.57
2023-02-18T05:17:24.942Z,7.22
2023-02-18T05:22:26.970Z,6.38
2023-02-18T05:27:28.635Z,6.60
2023-02-18T05:32:30.238Z,7.30
2023-02-18T05:37:31.955Z,7.03
2023-02-18T05:42:33.597Z,6.47
2023-02-18T05:47:35.251Z,7.78
2023-02-18T05:52:37.130Z,7.10
2023-02-18T05:57:39.061Z,7.20
2023-02-18T06:02:40.754Z,6.57
2023-02-18T06:07:42.416Z,7.32
2023-02-18T06:12:44.545Z,6.55
2023-02-18T06:17:46.208Z,7.35
2023-02-18T06:22:47.920Z,7.35
2023-02-18T06:27:49.536Z,8.40
2023-02-18T06:32:51.214Z,7.30
2023-02-18T06:37:52.914Z,7.13
2023-02-18T06:42:54.608Z,7.47
2023-02-18T06:47:56.173Z,7.28
2023-02-18T06:52:57.904Z,7.75
2023-02-18T06:57:59.677Z,7.05
2023-02-18T07:03:01.348Z,6.65
2023-02-18T07:08:03.133Z,7.53
2023-02-18T07:13:05.346Z,6.70
2023-02-18T07:18:07.209Z,6.85
2023-02-18T07:23:08.954Z,7.93
2023-02-18T07:28:10.808Z,6.75
2023-02-18T07:33:14.186Z,5.65
2023-02-18T07:38:15.810Z,5.32
2023-02-18T07:43:17.628Z,4.90
2023-02-18T07:48:19.303Z,4.90
2023-02-18T07:53:21.038Z,4.70
2023-02-18T07:58:25.252Z,3.30
2023-02-18T08:03:32.081Z,3.83
2023-02-18T08:08:36.609Z,4.15
2023-02-18T08:13:38.828Z,4.28
2023-02-18T08:18:40.471Z,4.60
2023-02-18T08:23:42.565Z,3.88
2023-02-18T08:28:45.652Z,4.32
2023-02-18T08:33:48.097Z,4.35
2023-02-18T08:38:49.868Z,3.85
2023-02-18T08:43:51.500Z,4.47
2023-02-18T08:48:53.105Z,3.88
2023-02-18T08:53:54.705Z,4.40
2023-02-18T08:58:56.383Z,3.80
2023-02-18T09:03:58.306Z,3.88
2023-02-18T09:09:00.098Z,3.13
2023-02-18T09:14:01.707Z,4.47
2023-02-18T09:19:03.439Z,4.55
2023-02-18T09:24:05.594Z,5.65
2023-02-18T09:29:07.289Z,3.95
2023-02-18T09:34:09.024Z,4.63
2023-02-18T09:39:12.964Z,5.15
2023-02-18T09:44:18.346Z,4.80
2023-02-18T09:49:25.215Z,5.45
2023-02-18T09:54:27.609Z,6.07
2023-02-18T09:59:31.428Z,4.53
2023-02-18T10:04:54.515Z,4.35
2023-02-18T10:10:01.667Z,4.93
2023-02-18T10:15:03.930Z,4.57
2023-02-18T10:20:08.423Z,4.30
2023-02-18T10:25:21.791Z,5.55
2023-02-18T10:30:57.385Z,4.97
2023-02-18T10:36:24.838Z,4.97
2023-02-18T10:42:09.613Z,3.97
2023-02-18T10:47:20.145Z,4.97
2023-02-18T10:52:21.901Z,5.22
2023-02-18T10:57:24.908Z,5.05
2023-02-18T11:02:32.532Z,4.22
2023-02-18T11:07:38.324Z,4.93
2023-02-18T11:12:49.637Z,3.65
2023-02-18T11:17:54.518Z,3.45
2023-02-18T11:23:08.175Z,4.35
2023-02-18T11:28:18.999Z,3.63
2023-02-18T11:33:26.937Z,4.75
2023-02-18T11:38:37.543Z,4.85
2023-02-18T11:43:46.212Z,4.35
2023-02-18T11:48:48.579Z,3.22
2023-02-18T11:54:03.835Z,3.42
2023-02-18T11:59:06.364Z,3.20
2023-02-18T12:04:17.231Z,3.80
2023-02-18T12:09:23.649Z,4.65
2023-02-18T12:14:25.473Z,5.03
2023-02-18T12:19:37.254Z,4.32
2023-02-18T12:24:45.122Z,3.75
2023-02-18T12:30:20.127Z,3.13
2023-02-18T12:35:40.478Z,3.78
2023-02-18T12:40:50.505Z,4.70
2023-02-18T12:51:20.287Z,3.58
2023-02-18T12:56:59.445Z,3.53
2023-02-18T13:02:24.606Z,3.90
2023-02-18T13:07:35.131Z,2.97
2023-02-18T13:13:01.417Z,4.03
2023-02-18T13:18:09.630Z,3.33
2023-02-18T13:23:38.748Z,3.63
2023-02-18T13:28:52.381Z,3.70
2023-02-18T13:34:07.985Z,4.47
2023-02-18T13:39:19.326Z,4.15
2023-02-18T13:44:20.942Z,3.63
2023-02-18T13:49:26.061Z,4.25
2023-02-18T13:54:46.627Z,3.45
2023-02-18T13:59:57.238Z,4.13
2023-02-18T14:05:08.494Z,3.72
2023-02-18T14:10:13.166Z,4.45
2023-02-18T14:15:20.942Z,3.20
2023-02-18T14:20:22.586Z,3.70
2023-02-18T14:25:36.758Z,3.97
2023-02-18T14:30:42.322Z,3.85
2023-02-18T14:35:56.964Z,3.65
2023-02-18T14:41:22.977Z,4.70
2023-02-18T14:46:29.032Z,3.80
2023-02-18T14:51:33.508Z,3.70
2023-02-18T14:56:39.642Z,3.67
2023-02-18T15:01:41.450Z,4.28
2023-02-18T15:06:43.064Z,4.57
2023-02-18T15:12:01.334Z,4.15
2023-02-18T15:17:05.671Z,3.63
2023-02-18T15:22:17.170Z,3.42
2023-02-18T15:27:24.819Z,3.92
2023-02-18T15:32:28.869Z,3.55
2023-02-18T15:37:31.481Z,3.00
2023-02-18T15:42:37.643Z,3.20
2023-02-18T15:47:48.226Z,3.58
2023-02-18T15:52:51.791Z,3.20
2023-02-18T15:57:54.725Z,3.63
2023-02-18T16:03:03.874Z,2.70
2023-02-18T16:08:16.388Z,4.07
2023-02-18T16:13:18.693Z,3.10
2023-02-18T16:18:37.081Z,3.53
2023-02-18T16:24:04.168Z,3.40
2023-02-18T16:29:14.096Z,3.80
2023-02-18T16:34:17.877Z,3.33
2023-02-18T16:39:20.637Z,3.55
2023-02-18T16:44:22.298Z,5.05
2023-02-18T16:49:24.300Z,4.72
2023-02-18T16:54:28.514Z,6.13
2023-02-18T16:59:30.108Z,5.15
2023-02-18T17:04:31.930Z,3.58
2023-02-18T17:09:33.634Z,4.55
2023-02-18T17:14:35.319Z,4.63
2023-02-18T17:19:36.969Z,5.60
2023-02-18T17:24:38.589Z,4.90
2023-02-18T17:29:40.256Z,5.50
2023-02-18T17:34:41.950Z,7.10
2023-02-18T17:39:43.587Z,4.80
2023-02-18T17:44:45.231Z,7.00
2023-02-18T17:49:47.057Z,5.82
2023-02-18T17:54:48.863Z,6.55
2023-02-18T17:59:50.463Z,5.05
2023-02-18T18:04:52.040Z,6.60
2023-02-18T18:09:53.663Z,6.50
2023-02-18T18:14:55.300Z,6.45
2023-02-18T18:19:56.940Z,6.35
2023-02-18T18:24:58.597Z,7.55
2023-02-18T18:30:00.349Z,6.68
2023-02-18T18:35:02.016Z,8.38
2023-02-18T18:40:03.776Z,7.95
2023-02-18T18:45:05.941Z,6.68
2023-02-18T18:50:08.188Z,7.25
2023-02-18T18:55:37.988Z,7.85
2023-02-18T19:00:43.125Z,7.88
2023-02-18T19:05:45.972Z,8.05
2023-02-18T19:10:58.280Z,8.43
2023-02-18T19:16:22.737Z,8.90
2023-02-18T19:21:24.403Z,7.75
2023-02-18T19:26:26.040Z,9.02
2023-02-18T19:31:28.595Z,8.75
2023-02-18T19:36:30.603Z,7.13
2023-02-18T19:41:32.205Z,7.72
2023-02-18T19:46:33.890Z,7.43
2023-02-18T19:51:35.567Z,7.28
2023-02-18T19:56:37.433Z,6.68
2023-02-18T20:01:39.029Z,8.18
2023-02-18T20:06:40.874Z,8.98
2023-02-18T20:11:42.526Z,9.13
2023-02-18T20:16:44.220Z,8.93
2023-02-18T20:21:46.528Z,8.65
2023-02-18T20:26:48.176Z,8.05
2023-02-18T20:31:50.323Z,8.55
2023-02-18T20:36:53.237Z,8.18
2023-02-18T20:41:54.874Z,7.78
2023-02-18T20:46:56.537Z,7.80
2023-02-18T20:51:58.127Z,7.18
2023-02-18T20:56:59.754Z,6.80
2023-02-18T21:02:01.592Z,6.55
2023-02-18T21:07:03.429Z,7.82
2023-02-18T21:12:05.389Z,6.53
2023-02-18T21:17:08.577Z,6.90
2023-02-18T21:22:11.260Z,7.90
2023-02-18T21:27:12.844Z,7.43
2023-02-18T21:32:14.597Z,6.55
2023-02-18T21:37:16.275Z,7.20
2023-02-18T21:42:17.842Z,5.88
2023-02-18T21:47:19.485Z,6.20
2023-02-18T21:52:21.143Z,6.10
2023-02-18T21:57:22.786Z,7.93
2023-02-18T22:02:29.729Z,6.72
2023-02-18T22:07:31.454Z,6.13
2023-02-18T22:12:33.972Z,6.88
2023-02-18T22:17:35.632Z,6.22
2023-02-18T22:22:37.283Z,6.60
2023-02-18T22:27:40.981Z,6.47
2023-02-18T22:32:42.706Z,6.18
2023-02-18T22:37:44.358Z,6.35
2023-02-18T22:42:46.120Z,5.43
2023-02-18T22:47:47.751Z,5.65
2023-02-18T22:52:49.499Z,5.47
2023-02-18T22:57:51.095Z,5.88
2023-02-18T23:02:53.535Z,4.57
2023-02-18T23:07:56.662Z,4.72
2023-02-18T23:12:58.289Z,4.78
2023-02-18T23:17:59.902Z,4.68
2023-02-18T23:23:01.493Z,4.40
2023-02-18T23:28:05.383Z,4.03
2023-02-18T23:33:07.063Z,4.22
2023-02-18T23:38:09.209Z,3.90
2023-02-18T23:43:10.887Z,4.55
2023-02-18T23:48:12.506Z,5.20
2023-02-18T23:53:14.127Z,4.80
2023-02-18T23:58:15.707Z,5.32
